Airfield :
LOGIN :

Register | Disclaimer

   EN    FR    IT 

 










Legend :    VFR   Marginal VFR   IFR   Intensive IFR   Very Intensive IFR
Visi :
Ceiling :
>= 8 km
>= 3000ft
5 to 8 km
1000 to 3000 ft
1500m to 5 km
500 to 1000 ft
800 to 1500m
200 to 500 ft
< 800m
< 200 ft
Symbols :   Thunderstorms  Fog  Heavy snow  Heavy precipitations  Wind > 20 kt
SIGMETs :     Misc.  Thunderstorms  Icing  Turbulence  Mountain Waves  Volcanic Ashes






- Airport Elevation : -11 ft
- IATA code : AMS


EHAM - Amsterdam Schiphol

CURRENT METAR :
  • 281125Z 19013KT 160V220 9999 FEW025 06/01 Q1014 NOSIG

EXPIRED METARs :
  • 281055Z 19011KT CAVOK 06/03 Q1014 NOSIG
  • 281025Z 19012KT 9999 FEW024 06/03 Q1014 NOSIG
  • 280955Z 19012KT 170V230 9999 FEW028 05/03 Q1014 NOSIG
  • 280925Z 19011KT 9999 FEW025 05/02 Q1014 NOSIG
  • 280855Z 20008KT 9999 FEW023 04/02 Q1014 NOSIG

TAF COR TAF EHAM
Valid from the 28 at 12:00 until the 29 at 18:00 UTC


281041Z 2812/2918 19013KT 9999 FEW025
BECMG 2815/2817 6000 RA BKN015
BECMG 2817/2819 17018G28KT SCT008 BKN015
TEMPO 2818/2903 3000 RADZ OVC007
BECMG 2819/2821 20020G30KT
BECMG 2903/2906 9999 NSW SCT020
BECMG 2912/2914 25023G35KT
TEMPO 2912/2914 27028G42KT 4000 RA BKN018
PROB40
TEMPO 2915/2918 26025G40KT 5000 SHRA SCT020CB



MET'MAP, your aeronautical weather chart ! - Copyright ORBIFLY December 2007 - Disclaimer

ORBIFLY MET'MAP TEAM :

Programming & Development : Alexandra Zaïnal
Concept & original design : Baudouin d'Aumeries
Assistance for programming : Marc-Olivier Méhu
Technical & hardware support : Manuel Goepfert

Contact : metmap@orbifly.com




SOURCES & CREDITS :

   NOAA